Time;durP1;ratioP1;P1;durP2;ratioP2;P2;SDS_P1;SDS_P2;PMS_P1;PMS_P2;Temp;Humidity;BMP_temperature;BMP_pressure;BME280_temperature;BME280_humidity;BME280_pressure;Samples;Min_cycle;Max_cycle;Signal;HPM_P1;HPM_P2
2020/12/26 00:02:02;;;;;;;;;;;0.20;99.90;;;;;;5100980;27;19915;-65
2020/12/26 00:04:28;;;;;;;;;;;0.20;99.90;;;;;;5098737;28;19920;-60
2020/12/26 00:06:53;;;;;;;;;;;0.30;99.90;;;;;;5102285;27;19916;-64
2020/12/26 00:09:19;;;;;;;;;;;0.10;99.90;;;;;;5097919;27;19919;-61
2020/12/26 00:11:44;;;;;;;;;;;0.00;99.90;;;;;;5101086;27;20008;-63
2020/12/26 00:14:10;;;;;;;;;;;0.20;99.90;;;;;;5100335;27;20010;-61
2020/12/26 00:16:35;;;;;;;;;;;-0.20;99.90;;;;;;5099649;27;19923;-61
2020/12/26 00:19:01;;;;;;;;;;;0.00;99.90;;;;;;5101430;27;20215;-66
2020/12/26 00:21:26;;;;;;;;;;;0.10;99.90;;;;;;5098467;28;20010;-63
2020/12/26 00:23:52;;;;;;;;;;;0.10;99.90;;;;;;5101142;27;19918;-66
2020/12/26 00:26:17;;;;;;;;;;;0.30;99.90;;;;;;5098693;27;19999;-63
2020/12/26 00:28:43;;;;;;;;;;;-0.20;99.90;;;;;;5100600;27;19911;-63
2020/12/26 00:31:13;;;;;;;;;;;0.10;99.90;;;;;;5099903;27;19911;-63
2020/12/26 00:33:38;;;;;;;;;;;-0.20;99.90;;;;;;5099679;27;19923;-62
2020/12/26 00:36:04;;;;;;;;;;;0.10;99.90;;;;;;5100189;27;19911;-64
2020/12/26 00:38:29;;;;;;;;;;;0.00;99.90;;;;;;5098500;28;19915;-66
2020/12/26 00:40:55;;;;;;;;;;;0.30;99.90;;;;;;5084560;27;19943;-61
2020/12/26 00:43:20;;;;;;;;;;;0.00;99.90;;;;;;5081366;27;19937;-65
2020/12/26 00:45:46;;;;;;;;;;;-0.40;99.90;;;;;;5100768;27;19917;-62
2020/12/26 00:48:11;;;;;;;;;;;-0.10;99.90;;;;;;5097718;27;19973;-62
2020/12/26 00:50:37;;;;;;;;;;;-0.30;99.90;;;;;;5098368;27;19920;-65
2020/12/26 00:53:02;;;;;;;;;;;0.00;99.90;;;;;;5100588;27;19915;-61
2020/12/26 00:55:28;;;;;;;;;;;-0.20;99.90;;;;;;5098607;28;20367;-60
2020/12/26 00:57:53;;;;;;;;;;;-0.30;99.90;;;;;;5101659;27;20295;-60
2020/12/26 01:00:19;;;;;;;;;;;-0.40;99.90;;;;;;5080131;28;20341;-63
2020/12/26 01:02:44;;;;;;;;;;;-0.30;99.90;;;;;;5098795;27;19991;-61
2020/12/26 01:05:11;;;;;;;;;;;-0.40;99.90;;;;;;5098456;27;20643;-64
2020/12/26 01:07:36;;;;;;;;;;;-0.30;99.90;;;;;;5081150;27;19951;-63
2020/12/26 01:10:02;;;;;;;;;;;-0.60;99.90;;;;;;5082819;27;19962;-66
2020/12/26 01:12:28;;;;;;;;;;;-0.40;99.90;;;;;;5097180;28;20321;-65
2020/12/26 01:14:53;;;;;;;;;;;-0.20;99.90;;;;;;5083581;27;20280;-60
2020/12/26 01:17:19;;;;;;;;;;;-0.70;99.90;;;;;;5097171;28;19920;-62
2020/12/26 01:19:45;;;;;;;;;;;-0.50;99.90;;;;;;5099510;27;19927;-65
2020/12/26 01:22:12;;;;;;;;;;;-0.50;99.90;;;;;;5097765;27;19922;-60
2020/12/26 01:24:38;;;;;;;;;;;-0.50;99.90;;;;;;5099530;27;19916;-61
2020/12/26 01:27:03;;;;;;;;;;;-0.60;99.90;;;;;;5098659;27;19915;-63
2020/12/26 01:29:29;;;;;;;;;;;-0.40;99.90;;;;;;5080152;27;19919;-62
2020/12/26 01:31:55;;;;;;;;;;;-0.90;99.90;;;;;;5116551;27;19961;-63
2020/12/26 01:34:20;;;;;;;;;;;-0.70;99.90;;;;;;5096750;28;19915;-64
2020/12/26 01:36:49;;;;;;;;;;;-0.70;99.90;;;;;;5100276;27;19918;-60
2020/12/26 01:39:16;;;;;;;;;;;;;;;;;;5097450;28;20401;-62
2020/12/26 01:41:43;;;;;;;;;;;;;;;;;;5099455;28;19924;-61
2020/12/26 01:44:16;;;;;;;;;;;;;;;;;;5098263;28;19923;-64
2020/12/26 01:46:48;;;;;;;;;;;;;;;;;;5100095;28;20277;-60
2020/12/26 01:49:16;;;;;;;;;;;;;;;;;;5097411;28;19970;-61
2020/12/26 01:51:44;;;;;;;;;;;-1.30;99.90;;;;;;5099690;28;19947;-62
2020/12/26 01:54:09;;;;;;;;;;;-1.00;99.90;;;;;;5116757;28;19916;-65
2020/12/26 01:56:37;;;;;;;;;;;-1.00;99.90;;;;;;5081724;28;20290;-64
2020/12/26 01:59:03;;;;;;;;;;;-1.10;99.90;;;;;;5099050;28;19918;-66
2020/12/26 02:01:32;;;;;;;;;;;-1.20;99.90;;;;;;5096153;28;19919;-63
2020/12/26 02:03:58;;;;;;;;;;;-1.20;99.90;;;;;;5101906;27;19932;-61
2020/12/26 02:06:23;;;;;;;;;;;-1.10;99.90;;;;;;5083852;27;20279;-63
2020/12/26 02:08:49;;;;;;;;;;;-1.10;99.90;;;;;;5087728;27;20363;-64
2020/12/26 02:11:14;;;;;;;;;;;-1.30;99.90;;;;;;5083729;28;20463;-65
2020/12/26 02:13:40;;;;;;;;;;;-1.00;99.90;;;;;;5103879;27;19916;-63
2020/12/26 02:16:09;;;;;;;;;;;-1.30;99.90;;;;;;5101926;27;19979;-61
2020/12/26 02:18:34;;;;;;;;;;;-1.30;99.90;;;;;;5103917;27;19961;-60
2020/12/26 02:21:00;;;;;;;;;;;-1.30;99.90;;;;;;5100301;27;19924;-66
2020/12/26 02:23:26;;;;;;;;;;;-1.40;99.90;;;;;;5085146;27;19984;-63
2020/12/26 02:25:56;;;;;;;;;;;-1.40;99.90;;;;;;5083915;28;19916;-64
2020/12/26 02:28:21;;;;;;;;;;;-1.70;99.90;;;;;;5085931;27;20247;-63
2020/12/26 02:30:47;;;;;;;;;;;-1.30;99.90;;;;;;5082244;28;19992;-62
2020/12/26 02:33:13;;;;;;;;;;;-1.60;99.90;;;;;;5083043;28;19915;-64
2020/12/26 02:35:38;;;;;;;;;;;-1.50;99.90;;;;;;5122231;27;19973;-61
2020/12/26 02:38:04;;;;;;;;;;;-1.40;99.90;;;;;;5101158;27;20063;-63
2020/12/26 02:40:29;;;;;;;;;;;-1.40;99.90;;;;;;5100090;27;19986;-63
2020/12/26 02:42:55;;;;;;;;;;;-1.60;99.90;;;;;;5100888;27;19977;-63
2020/12/26 02:45:20;;;;;;;;;;;-1.50;99.90;;;;;;5102520;27;19911;-61
2020/12/26 02:47:45;;;;;;;;;;;-1.60;99.90;;;;;;5082439;28;19916;-65
2020/12/26 02:50:11;;;;;;;;;;;-1.60;99.90;;;;;;5102748;27;19968;-61
2020/12/26 02:52:37;;;;;;;;;;;-1.60;99.90;;;;;;5099607;27;19915;-63
2020/12/26 02:55:02;;;;;;;;;;;-1.70;99.90;;;;;;5103175;27;19916;-64
2020/12/26 02:57:28;;;;;;;;;;;-1.60;99.90;;;;;;5084467;27;19915;-61
2020/12/26 02:59:53;;;;;;;;;;;-1.60;99.90;;;;;;5100811;27;20671;-65
2020/12/26 03:02:18;;;;;;;;;;;-1.30;99.90;;;;;;5101676;27;19998;-63
2020/12/26 03:04:44;;;;;;;;;;;-1.80;99.90;;;;;;5081911;28;19919;-65
2020/12/26 03:07:09;;;;;;;;;;;-1.70;99.90;;;;;;5102196;27;19915;-64
2020/12/26 03:09:35;;;;;;;;;;;-1.50;99.90;;;;;;5098657;28;20014;-63
2020/12/26 03:12:00;;;;;;;;;;;-1.90;99.90;;;;;;5101656;27;19912;-64
2020/12/26 03:14:26;;;;;;;;;;;-1.80;99.90;;;;;;5101461;27;19923;-60
2020/12/26 03:16:51;;;;;;;;;;;-1.70;99.90;;;;;;5082910;27;19920;-65
2020/12/26 03:19:17;;;;;;;;;;;-1.80;99.90;;;;;;5101638;27;19923;-65
2020/12/26 03:21:42;;;;;;;;;;;-1.90;99.90;;;;;;5081198;28;19934;-59
2020/12/26 03:24:08;;;;;;;;;;;-1.90;99.90;;;;;;5129204;27;20014;-62
2020/12/26 03:26:33;;;;;;;;;;;-1.80;99.90;;;;;;5121240;27;20020;-63
2020/12/26 03:28:59;;;;;;;;;;;-1.80;99.90;;;;;;5100306;27;19915;-57
2020/12/26 03:31:24;;;;;;;;;;;-1.80;99.90;;;;;;5100964;27;19920;-63
2020/12/26 03:33:50;;;;;;;;;;;-1.80;99.90;;;;;;5084408;27;19923;-60
2020/12/26 03:36:15;;;;;;;;;;;-1.80;99.90;;;;;;5099935;27;19916;-62
2020/12/26 03:38:41;;;;;;;;;;;-1.90;99.90;;;;;;5102225;27;19915;-63
2020/12/26 03:41:06;;;;;;;;;;;-2.00;99.90;;;;;;5093563;28;19965;-61
2020/12/26 03:43:32;;;;;;;;;;;-1.80;99.90;;;;;;5101441;27;20003;-62
2020/12/26 03:45:57;;;;;;;;;;;-1.90;99.90;;;;;;5100259;27;20286;-62
2020/12/26 03:48:22;;;;;;;;;;;-1.80;99.90;;;;;;5119938;27;19926;-63
2020/12/26 03:50:52;;;;;;;;;;;-2.00;99.90;;;;;;5101138;27;20030;-61
2020/12/26 03:53:17;;;;;;;;;;;-1.90;99.90;;;;;;5100030;27;19944;-62
2020/12/26 03:55:43;;;;;;;;;;;-2.10;99.90;;;;;;5102136;27;19918;-64
2020/12/26 03:58:08;;;;;;;;;;;-1.90;99.90;;;;;;5099506;28;19967;-62
2020/12/26 04:00:34;;;;;;;;;;;-2.10;99.90;;;;;;5102163;27;19943;-65
2020/12/26 04:02:59;;;;;;;;;;;-2.00;99.90;;;;;;5118126;27;19920;-61
2020/12/26 04:05:25;;;;;;;;;;;-2.10;99.90;;;;;;5100865;27;19916;-65
2020/12/26 04:07:51;;;;;;;;;;;-2.20;99.90;;;;;;5100233;27;19919;-58
2020/12/26 04:10:16;;;;;;;;;;;-2.20;99.90;;;;;;5098994;27;20045;-62
2020/12/26 04:12:42;;;;;;;;;;;-2.00;99.90;;;;;;5101063;27;20002;-58
2020/12/26 04:15:08;;;;;;;;;;;-2.30;99.90;;;;;;5080816;28;19915;-61
2020/12/26 04:17:33;;;;;;;;;;;-1.90;99.90;;;;;;5121097;27;20640;-64
2020/12/26 04:19:59;;;;;;;;;;;-1.90;99.90;;;;;;5098715;28;19920;-64
2020/12/26 04:22:25;;;;;;;;;;;-2.10;99.90;;;;;;5083201;27;19916;-63
2020/12/26 04:24:50;;;;;;;;;;;-2.00;99.90;;;;;;5098882;28;19967;-63
2020/12/26 04:27:15;;;;;;;;;;;-2.00;99.90;;;;;;5099451;27;20280;-63
2020/12/26 04:29:42;;;;;;;;;;;-2.00;99.90;;;;;;5098583;27;19915;-60
2020/12/26 04:32:08;;;;;;;;;;;-1.90;99.90;;;;;;5097176;28;20379;-64
2020/12/26 04:34:33;;;;;;;;;;;-2.00;99.90;;;;;;5100759;27;19916;-62
2020/12/26 04:36:58;;;;;;;;;;;-2.10;99.90;;;;;;5096220;27;19916;-62
2020/12/26 04:39:24;;;;;;;;;;;-2.00;99.90;;;;;;5098241;27;20418;-65
2020/12/26 04:41:50;;;;;;;;;;;-2.30;99.90;;;;;;5099954;27;19916;-64
2020/12/26 04:44:15;;;;;;;;;;;-2.00;99.90;;;;;;5097470;27;20002;-58
2020/12/26 04:46:42;;;;;;;;;;;-2.10;99.90;;;;;;5098961;27;19912;-60
2020/12/26 04:49:08;;;;;;;;;;;-2.00;99.90;;;;;;5083463;27;19926;-64
2020/12/26 04:51:40;;;;;;;;;;;-2.00;99.90;;;;;;5097308;28;20295;-60
2020/12/26 04:54:07;;;;;;;;;;;-2.20;99.90;;;;;;5095047;28;19927;-62
2020/12/26 04:56:37;;;;;;;;;;;-2.10;99.90;;;;;;5101449;27;19998;-62
2020/12/26 04:59:03;;;;;;;;;;;-2.00;99.90;;;;;;5127666;27;20096;-60
2020/12/26 05:01:29;;;;;;;;;;;-2.10;99.90;;;;;;5079088;28;20011;-64
2020/12/26 05:03:57;;;;;;;;;;;-2.30;99.90;;;;;;5099997;27;19916;-60
2020/12/26 05:06:26;;;;;;;;;;;-2.20;99.90;;;;;;5098834;27;20002;-60
2020/12/26 05:08:51;;;;;;;;;;;-2.20;99.90;;;;;;5100541;27;19916;-62
2020/12/26 05:11:21;;;;;;;;;;;-2.30;99.90;;;;;;5081591;27;19970;-62
2020/12/26 05:13:47;;;;;;;;;;;-2.40;99.90;;;;;;5118470;27;19920;-64
2020/12/26 05:16:12;;;;;;;;;;;-2.40;99.90;;;;;;5098870;28;19919;-58
2020/12/26 05:18:38;;;;;;;;;;;-2.30;99.90;;;;;;5098595;28;20543;-61
2020/12/26 05:21:04;;;;;;;;;;;-2.40;99.90;;;;;;5099640;27;19930;-62
2020/12/26 05:23:29;;;;;;;;;;;-2.40;99.90;;;;;;5096513;28;19920;-62
2020/12/26 05:25:55;;;;;;;;;;;-2.40;99.90;;;;;;5099746;27;19919;-61
2020/12/26 05:28:21;;;;;;;;;;;-2.50;99.90;;;;;;5081331;27;19918;-62
2020/12/26 05:30:48;;;;;;;;;;;-2.50;99.90;;;;;;5099359;27;20274;-60
2020/12/26 05:33:14;;;;;;;;;;;-2.40;99.90;;;;;;5098886;27;20583;-62
2020/12/26 05:35:43;;;;;;;;;;;-2.60;99.90;;;;;;5097845;27;19922;-60
2020/12/26 05:38:12;;;;;;;;;;;-2.70;99.90;;;;;;5081521;27;19983;-60
2020/12/26 05:40:41;;;;;;;;;;;-2.70;99.90;;;;;;5097877;28;19916;-66
2020/12/26 05:43:07;;;;;;;;;;;-2.60;99.90;;;;;;5118697;27;19915;-61
2020/12/26 05:45:37;;;;;;;;;;;-2.50;99.90;;;;;;5079236;28;19911;-62
2020/12/26 05:48:10;;;;;;;;;;;-2.50;99.90;;;;;;5099932;28;20014;-61
2020/12/26 05:50:36;;;;;;;;;;;-2.70;99.90;;;;;;5079362;28;20286;-62
2020/12/26 05:53:02;;;;;;;;;;;-2.50;99.90;;;;;;5100658;28;19915;-62
2020/12/26 05:55:35;;;;;;;;;;;-2.50;99.90;;;;;;5097750;28;19916;-60
2020/12/26 05:58:01;;;;;;;;;;;-2.60;99.90;;;;;;5093079;28;20645;-62
2020/12/26 06:00:30;;;;;;;;;;;-2.50;99.90;;;;;;5100152;28;19919;-64
2020/12/26 06:02:56;;;;;;;;;;;-2.80;99.90;;;;;;5126415;27;19916;-61
2020/12/26 06:05:23;;;;;;;;;;;-2.20;99.90;;;;;;5099654;28;19915;-60
2020/12/26 06:07:49;;;;;;;;;;;-2.50;99.90;;;;;;5097326;28;20464;-63
2020/12/26 06:10:14;;;;;;;;;;;-2.50;99.90;;;;;;5079907;28;19923;-62
2020/12/26 06:12:41;;;;;;;;;;;-2.50;99.90;;;;;;5080324;28;19916;-63
2020/12/26 06:15:07;;;;;;;;;;;-2.20;99.90;;;;;;5096671;28;19938;-62
2020/12/26 06:17:33;;;;;;;;;;;-2.60;99.90;;;;;;5081927;28;19919;-61
2020/12/26 06:19:59;;;;;;;;;;;-2.70;99.90;;;;;;5078457;28;19968;-62
2020/12/26 06:22:24;;;;;;;;;;;-2.60;99.90;;;;;;5099650;28;19922;-61
2020/12/26 06:24:51;;;;;;;;;;;-2.80;99.90;;;;;;5080285;28;19920;-62
2020/12/26 06:27:22;;;;;;;;;;;-2.70;99.90;;;;;;5078742;28;20287;-63
2020/12/26 06:29:48;;;;;;;;;;;-2.70;99.90;;;;;;5098326;28;19911;-61
2020/12/26 06:32:14;;;;;;;;;;;-2.60;99.90;;;;;;5097887;28;19916;-64
2020/12/26 06:34:40;;;;;;;;;;;-2.80;99.90;;;;;;5098837;28;19930;-63
2020/12/26 06:37:06;;;;;;;;;;;-2.80;99.90;;;;;;5081047;28;20358;-65
2020/12/26 06:39:33;;;;;;;;;;;-2.60;99.90;;;;;;5097060;28;19959;-60
2020/12/26 06:42:11;;;;;;;;;;;-2.90;99.90;;;;;;5099221;28;20413;-59
2020/12/26 06:44:36;;;;;;;;;;;-3.00;99.90;;;;;;5098043;28;19915;-61
2020/12/26 06:47:02;;;;;;;;;;;-3.00;99.90;;;;;;5081845;28;19917;-61
2020/12/26 06:49:27;;;;;;;;;;;-2.90;99.90;;;;;;5074109;27;19923;-56
2020/12/26 06:51:53;;;;;;;;;;;-3.00;99.90;;;;;;5099808;27;19953;-60
2020/12/26 06:54:45;;;;;;;;;;;-2.90;99.90;;;;;;5093669;27;19919;-65
2020/12/26 06:57:30;;;;;;;;;;;-3.20;99.90;;;;;;5093263;27;19919;-59
2020/12/26 06:59:56;;;;;;;;;;;-2.60;99.90;;;;;;5095365;27;20306;-63
2020/12/26 07:02:24;;;;;;;;;;;-2.80;99.90;;;;;;5096484;27;19923;-61
2020/12/26 07:04:50;;;;;;;;;;;-3.10;99.90;;;;;;5129832;27;19968;-62
2020/12/26 07:07:35;;;;;;;;;;;-3.00;99.90;;;;;;5117355;27;19920;-61
2020/12/26 07:10:01;;;;;;;;;;;-3.10;99.90;;;;;;5097959;27;19915;-57
2020/12/26 07:12:40;;;;;;;;;;;-3.00;99.90;;;;;;5097603;27;19915;-61
2020/12/26 07:15:05;;;;;;;;;;;-2.90;99.90;;;;;;5116385;27;20010;-60
2020/12/26 07:17:31;;;;;;;;;;;-3.00;99.90;;;;;;5098110;27;20010;-59
2020/12/26 07:19:59;;;;;;;;;;;-3.10;99.90;;;;;;5115570;27;19923;-63
2020/12/26 07:22:24;;;;;;;;;;;-2.90;99.90;;;;;;5100953;27;19919;-63
2020/12/26 07:24:50;;;;;;;;;;;-2.80;99.90;;;;;;5100141;28;19926;-61
2020/12/26 07:27:22;;;;;;;;;;;-2.90;99.90;;;;;;5118433;27;19915;-66
2020/12/26 07:29:52;;;;;;;;;;;-2.90;99.90;;;;;;5095720;27;19988;-61
2020/12/26 07:35:22;;;;;;;;;;;-3.00;99.90;;;;;;5118207;27;19915;-62
2020/12/26 07:37:50;;;;;;;;;;;-2.80;99.90;;;;;;5081973;28;19915;-61
2020/12/26 07:40:26;;;;;;;;;;;-3.10;99.90;;;;;;5130616;27;20038;-62
2020/12/26 07:42:52;;;;;;;;;;;-2.80;99.90;;;;;;5099841;27;19980;-62
2020/12/26 07:45:18;;;;;;;;;;;-2.70;99.90;;;;;;5106206;27;19915;-60
2020/12/26 07:47:45;;;;;;;;;;;-2.70;99.90;;;;;;5087481;28;19912;-64
2020/12/26 07:50:11;;;;;;;;;;;-2.80;99.90;;;;;;5111084;27;19994;-64
2020/12/26 07:52:36;;;;;;;;;;;-2.60;99.90;;;;;;5096940;27;19915;-65
2020/12/26 07:55:02;;;;;;;;;;;-2.70;99.90;;;;;;5093454;27;20390;-62
2020/12/26 07:57:28;;;;;;;;;;;-2.60;99.90;;;;;;5079166;27;19923;-60
2020/12/26 07:59:54;;;;;;;;;;;-2.70;99.90;;;;;;5075836;28;19919;-61
2020/12/26 08:02:20;;;;;;;;;;;-2.50;99.90;;;;;;5078402;27;19916;-62
2020/12/26 08:04:46;;;;;;;;;;;-2.50;99.90;;;;;;5098166;27;19954;-60
2020/12/26 08:07:15;;;;;;;;;;;-2.40;99.90;;;;;;5100365;27;19912;-65
2020/12/26 08:09:53;;;;;;;;;;;-2.30;99.90;;;;;;5102706;27;20268;-63
2020/12/26 08:12:19;;;;;;;;;;;-2.60;99.90;;;;;;5126285;27;20023;-61
2020/12/26 08:14:54;;;;;;;;;;;-2.40;99.90;;;;;;5085383;27;20918;-64
2020/12/26 08:17:21;;;;;;;;;;;-2.20;99.90;;;;;;5094703;27;19947;-56
2020/12/26 08:19:47;;;;;;;;;;;-2.10;99.90;;;;;;5082595;27;20373;-66
2020/12/26 08:22:13;;;;;;;;;;;-2.00;99.90;;;;;;5098996;28;19912;-61
2020/12/26 08:24:39;;;;;;;;;;;-1.60;99.90;;;;;;5097714;27;19920;-62
2020/12/26 08:27:08;;;;;;;;;;;-1.30;99.90;;;;;;5087224;27;19939;-63
2020/12/26 08:29:34;;;;;;;;;;;-1.30;99.90;;;;;;5104107;27;19915;-62
2020/12/26 08:32:02;;;;;;;;;;;-0.80;99.90;;;;;;5082279;27;19916;-63
2020/12/26 08:34:50;;;;;;;;;;;-0.30;99.90;;;;;;5100110;27;19923;-63
2020/12/26 08:37:23;;;;;;;;;;;-0.10;99.90;;;;;;5128250;27;20049;-64
2020/12/26 08:39:57;;;;;;;;;;;0.80;99.90;;;;;;5119514;27;19954;-62
2020/12/26 08:42:24;;;;;;;;;;;0.80;99.90;;;;;;5100608;27;19911;-61
2020/12/26 08:44:49;;;;;;;;;;;1.40;99.90;;;;;;5082797;27;20378;-63
2020/12/26 08:47:24;;;;;;;;;;;1.60;99.90;;;;;;5076575;28;19915;-61
2020/12/26 08:49:50;;;;;;;;;;;1.40;99.90;;;;;;5100404;27;20480;-60
2020/12/26 08:52:22;;;;;;;;;;;1.80;99.90;;;;;;5098320;28;20006;-58
2020/12/26 08:54:59;;;;;;;;;;;2.20;99.90;;;;;;5101472;27;20080;-64
2020/12/26 08:57:24;;;;;;;;;;;2.70;99.90;;;;;;5098144;28;19915;-64
2020/12/26 08:59:50;;;;;;;;;;;3.10;99.90;;;;;;5103496;27;19930;-65
2020/12/26 09:02:15;;;;;;;;;;;3.10;99.90;;;;;;5104342;28;19916;-63
2020/12/26 09:04:41;;;;;;;;;;;3.70;99.90;;;;;;5082194;28;20350;-65
2020/12/26 09:07:19;;;;;;;;;;;3.50;99.90;;;;;;5101032;27;19938;-60
2020/12/26 09:09:45;;;;;;;;;;;3.50;99.90;;;;;;5126995;27;19943;-65
2020/12/26 09:12:12;;;;;;;;;;;;;;;;;;5082942;27;20286;-65
2020/12/26 09:14:41;;;;;;;;;;;;;;;;;;5119519;27;20019;-64
2020/12/26 09:17:10;;;;;;;;;;;;;;;;;;5096684;28;19920;-65
2020/12/26 09:19:38;;;;;;;;;;;;;;;;;;5049391;28;19915;-62
2020/12/26 09:22:05;;;;;;;;;;;;;;;;;;5095595;27;19923;-65
2020/12/26 09:24:32;;;;;;;;;;;;;;;;;;5116889;27;20341;-62
2020/12/26 09:27:01;;;;;;;;;;;;;;;;;;5099274;27;19920;-65
2020/12/26 09:29:29;;;;;;;;;;;;;;;;;;5094198;27;19920;-63
2020/12/26 09:31:55;;;;;;;;;;;;;;;;;;5098414;27;20401;-65
2020/12/26 09:34:21;;;;;;;;;;;;;;;;;;5098688;27;20019;-63
2020/12/26 09:36:49;;;;;;;;;;;;;;;;;;5097664;28;20521;-61
2020/12/26 09:39:18;;;;;;;;;;;;;;;;;;5098076;27;20650;-63
2020/12/26 09:41:45;;;;;;;;;;;;;;;;;;5095695;28;19919;-63
2020/12/26 09:44:12;;;;;;;;;;;;;;;;;;5099405;27;20628;-62
2020/12/26 09:46:38;;;;;;;;;;;;;;;;;;5093593;28;19965;-56
2020/12/26 09:49:05;;;;;;;;;;;;;;;;;;5098471;28;20034;-63
2020/12/26 09:51:32;;;;;;;;;;;;;;;;;;5095588;28;20256;-63
2020/12/26 09:53:58;;;;;;;;;;;;;;;;;;5096275;28;19957;-60
2020/12/26 09:56:26;;;;;;;;;;;;;;;;;;5096232;28;19949;-64
2020/12/26 09:58:53;;;;;;;;;;;;;;;;;;5095018;28;19926;-61
2020/12/26 10:01:19;;;;;;;;;;;;;;;;;;5098233;28;19923;-62
2020/12/26 10:03:46;;;;;;;;;;;4.20;99.90;;;;;;5093488;28;19919;-63
2020/12/26 10:06:15;;;;;;;;;;;4.20;99.90;;;;;;5098064;28;19919;-65
2020/12/26 10:08:42;;;;;;;;;;;3.90;99.90;;;;;;5096356;28;19919;-59
2020/12/26 10:11:08;;;;;;;;;;;4.90;99.90;;;;;;5099854;28;19911;-63
2020/12/26 10:13:34;;;;;;;;;;;4.80;99.90;;;;;;5095434;28;20004;-61
2020/12/26 10:15:59;;;;;;;;;;;5.00;99.90;;;;;;5098601;28;19972;-59
2020/12/26 10:18:25;;;;;;;;;;;4.90;99.90;;;;;;5092267;28;19924;-63
2020/12/26 10:20:50;;;;;;;;;;;5.00;99.90;;;;;;5097708;28;19915;-63
2020/12/26 10:23:16;;;;;;;;;;;5.40;99.90;;;;;;5098757;27;19965;-64
2020/12/26 10:25:41;;;;;;;;;;;4.90;99.90;;;;;;5106385;27;19916;-64
2020/12/26 10:28:07;;;;;;;;;;;5.30;99.90;;;;;;5103131;27;20336;-62
2020/12/26 10:30:36;;;;;;;;;;;;;;;;;;5105854;27;19916;-65
2020/12/26 10:33:04;;;;;;;;;;;;;;;;;;5105051;28;19968;-62
2020/12/26 10:35:30;;;;;;;;;;;;;;;;;;5110465;27;20504;-61
2020/12/26 10:37:56;;;;;;;;;;;;;;;;;;5104240;27;19998;-61
2020/12/26 10:40:22;;;;;;;;;;;;;;;;;;5100322;27;19926;-62
2020/12/26 10:42:48;;;;;;;;;;;;;;;;;;5098445;27;19959;-60
2020/12/26 10:45:14;;;;;;;;;;;;;;;;;;5097647;27;20260;-63
2020/12/26 10:47:40;;;;;;;;;;;;;;;;;;5117759;27;19912;-65
2020/12/26 10:50:05;;;;;;;;;;;;;;;;;;5098372;27;20006;-60
2020/12/26 10:52:32;;;;;;;;;;;;;;;;;;5118870;27;20313;-62
2020/12/26 10:54:58;;;;;;;;;;;;;;;;;;5101730;27;19925;-60
2020/12/26 10:57:24;;;;;;;;;;;;;;;;;;5099772;27;19915;-59
2020/12/26 10:59:50;;;;;;;;;;;;;;;;;;5100697;27;19919;-64
2020/12/26 11:02:15;;;;;;;;;;;;;;;;;;5101011;27;19925;-62
2020/12/26 11:04:41;;;;;;;;;;;;;;;;;;5098966;27;19934;-63
2020/12/26 11:07:07;;;;;;;;;;;;;;;;;;5133168;27;19919;-64
2020/12/26 11:09:33;;;;;;;;;;;;;;;;;;5102980;27;20006;-64
2020/12/26 11:11:59;;;;;;;;;;;;;;;;;;5098875;28;19915;-63
2020/12/26 11:14:25;;;;;;;;;;;;;;;;;;5103274;27;20397;-60
2020/12/26 11:16:51;;;;;;;;;;;;;;;;;;5098404;27;19923;-63
2020/12/26 11:19:17;;;;;;;;;;;;;;;;;;5110700;27;19916;-62
2020/12/26 11:21:43;;;;;;;;;;;;;;;;;;5094891;27;19927;-64
2020/12/26 11:24:09;;;;;;;;;;;;;;;;;;5094765;27;19923;-63
2020/12/26 11:26:34;;;;;;;;;;;;;;;;;;5096244;27;20373;-61
2020/12/26 11:29:00;;;;;;;;;;;;;;;;;;5126954;27;20335;-65
2020/12/26 11:31:26;;;;;;;;;;;;;;;;;;5097369;27;19922;-61
2020/12/26 11:33:52;;;;;;;;;;;;;;;;;;5098692;27;19923;-64
2020/12/26 11:36:18;;;;;;;;;;;;;;;;;;5102266;27;19916;-65
2020/12/26 11:38:44;;;;;;;;;;;;;;;;;;5101013;27;20071;-59
2020/12/26 11:41:10;;;;;;;;;;;;;;;;;;5133334;27;20422;-60
2020/12/26 11:43:40;;;;;;;;;;;;;;;;;;5097457;27;19912;-62
2020/12/26 11:46:06;;;;;;;;;;;;;;;;;;5118149;27;19922;-56
2020/12/26 11:48:32;;;;;;;;;;;;;;;;;;5101787;27;19915;-63
2020/12/26 11:50:58;;;;;;;;;;;;;;;;;;5128409;27;19915;-65
2020/12/26 11:53:24;;;;;;;;;;;;;;;;;;5101503;27;20409;-62
2020/12/26 11:55:50;;;;;;;;;;;;;;;;;;5097241;27;19915;-62
2020/12/26 11:58:16;;;;;;;;;;;;;;;;;;5101615;27;19916;-62
2020/12/26 12:00:42;;;;;;;;;;;;;;;;;;5097140;27;19927;-62
2020/12/26 12:03:08;;;;;;;;;;;;;;;;;;5118008;27;19923;-63
2020/12/26 12:05:33;;;;;;;;;;;;;;;;;;5100233;27;20645;-59
2020/12/26 12:07:59;;;;;;;;;;;;;;;;;;5096852;27;19979;-61
2020/12/26 12:10:25;;;;;;;;;;;;;;;;;;5097787;28;20607;-61
2020/12/26 12:12:51;;;;;;;;;;;;;;;;;;5097296;27;20476;-63
2020/12/26 12:15:17;;;;;;;;;;;;;;;;;;5119421;27;19920;-65
2020/12/26 12:17:43;;;;;;;;;;;;;;;;;;5100557;27;20406;-62
2020/12/26 12:20:09;;;;;;;;;;;;;;;;;;5098143;28;20366;-60
2020/12/26 12:22:35;;;;;;;;;;;;;;;;;;5098367;27;20059;-64
2020/12/26 12:25:00;;;;;;;;;;;;;;;;;;5131690;27;20303;-61
2020/12/26 12:27:26;;;;;;;;;;;;;;;;;;5100591;27;19919;-59
2020/12/26 12:29:52;;;;;;;;;;;;;;;;;;5094355;28;20492;-62
2020/12/26 12:32:18;;;;;;;;;;;;;;;;;;5094882;27;19927;-58
2020/12/26 12:34:44;;;;;;;;;;;;;;;;;;5126093;27;19926;-61
2020/12/26 12:37:12;;;;;;;;;;;;;;;;;;5127837;27;20002;-58
2020/12/26 12:39:38;;;;;;;;;;;;;;;;;;5124729;27;20279;-60
2020/12/26 12:42:07;;;;;;;;;;;;;;;;;;5128694;27;19919;-63
2020/12/26 12:44:33;;;;;;;;;;;;;;;;;;5107320;27;19939;-60
2020/12/26 12:46:59;;;;;;;;;;;;;;;;;;5130702;27;19984;-63
2020/12/26 12:49:25;;;;;;;;;;;;;;;;;;5098407;27;19916;-63
2020/12/26 12:51:51;;;;;;;;;;;;;;;;;;5098328;28;19915;-60
2020/12/26 12:54:17;;;;;;;;;;;;;;;;;;5098410;27;19915;-60
2020/12/26 12:56:43;;;;;;;;;;;;;;;;;;5094958;27;19915;-60
2020/12/26 12:59:09;;;;;;;;;;;;;;;;;;5129992;27;19928;-61
2020/12/26 13:01:35;;;;;;;;;;;;;;;;;;5101244;28;19926;-62
2020/12/26 13:04:01;;;;;;;;;;;;;;;;;;5103337;27;20026;-61
2020/12/26 13:06:27;;;;;;;;;;;;;;;;;;5100762;27;20002;-64
2020/12/26 13:08:53;;;;;;;;;;;;;;;;;;5096895;27;20002;-59
2020/12/26 13:11:19;;;;;;;;;;;;;;;;;;5101714;27;19960;-61
2020/12/26 13:13:45;;;;;;;;;;;;;;;;;;5098584;28;19964;-58
2020/12/26 13:16:11;;;;;;;;;;;;;;;;;;5099298;27;20100;-61
2020/12/26 13:18:37;;;;;;;;;;;;;;;;;;5098691;27;19919;-56
2020/12/26 13:21:02;;;;;;;;;;;;;;;;;;5130776;27;20375;-61
2020/12/26 13:23:28;;;;;;;;;;;;;;;;;;5099106;27;19958;-58
2020/12/26 13:25:54;;;;;;;;;;;;;;;;;;5093344;27;19912;-65
2020/12/26 13:28:20;;;;;;;;;;;;;;;;;;5095958;27;19912;-59
2020/12/26 13:30:46;;;;;;;;;;;;;;;;;;5099567;27;20283;-63
2020/12/26 13:33:12;;;;;;;;;;;;;;;;;;5130663;27;20322;-60
2020/12/26 13:35:38;;;;;;;;;;;;;;;;;;5096550;28;20260;-60
2020/12/26 13:38:04;;;;;;;;;;;;;;;;;;5097750;28;20689;-60
2020/12/26 13:40:30;;;;;;;;;;;;;;;;;;5096540;27;20394;-61
2020/12/26 13:42:57;;;;;;;;;;;;;;;;;;5096960;27;20035;-62
2020/12/26 13:45:24;;;;;;;;;;;;;;;;;;5096775;28;20320;-61
2020/12/26 13:47:52;;;;;;;;;;;;;;;;;;5095982;28;19916;-62
2020/12/26 13:50:19;;;;;;;;;;;;;;;;;;5098890;27;19922;-62
2020/12/26 13:52:46;;;;;;;;;;;;;;;;;;5094279;28;19965;-61
2020/12/26 13:55:12;;;;;;;;;;;;;;;;;;5132683;27;19926;-59
2020/12/26 13:57:39;;;;;;;;;;;;;;;;;;5091250;28;19916;-60
2020/12/26 14:00:06;;;;;;;;;;;;;;;;;;5096839;28;19919;-60
2020/12/26 14:02:32;;;;;;;;;;;;;;;;;;5096997;28;19923;-64
2020/12/26 14:04:59;;;;;;;;;;;;;;;;;;5097087;28;20640;-63
2020/12/26 14:07:26;;;;;;;;;;;;;;;;;;5095977;28;19912;-62
2020/12/26 14:09:52;;;;;;;;;;;;;;;;;;5094447;28;19976;-62
2020/12/26 14:12:19;;;;;;;;;;;;;;;;;;5100187;28;19915;-59
2020/12/26 14:14:45;;;;;;;;;;;;;;;;;;5097233;28;19915;-60
2020/12/26 14:17:10;;;;;;;;;;;3.80;99.90;;;;;;5098552;28;19930;-60
2020/12/26 14:19:37;;;;;;;;;;;;;;;;;;5090057;28;19916;-64
2020/12/26 14:22:03;;;;;;;;;;;;;;;;;;5095775;28;19931;-57
2020/12/26 14:24:30;;;;;;;;;;;;;;;;;;5096495;28;19954;-63
2020/12/26 14:26:55;;;;;;;;;;;3.90;99.90;;;;;;5096717;28;19997;-64
2020/12/26 14:29:21;;;;;;;;;;;;;;;;;;5096437;28;19923;-61
2020/12/26 14:31:48;;;;;;;;;;;;;;;;;;5095123;28;19915;-64
2020/12/26 14:34:14;;;;;;;;;;;;;;;;;;5098161;28;19918;-63
2020/12/26 14:36:40;;;;;;;;;;;;;;;;;;5098800;28;19976;-60
2020/12/26 14:39:07;;;;;;;;;;;;;;;;;;5101855;28;20000;-61
2020/12/26 14:41:33;;;;;;;;;;;;;;;;;;5100935;28;19945;-64
2020/12/26 14:43:58;;;;;;;;;;;2.10;99.90;;;;;;5103326;28;19915;-59
2020/12/26 14:46:25;;;;;;;;;;;;;;;;;;5097160;28;20483;-60
2020/12/26 14:48:51;;;;;;;;;;;1.90;99.90;;;;;;5101100;28;19999;-60
2020/12/26 14:51:18;;;;;;;;;;;;;;;;;;5097299;28;19998;-64
2020/12/26 14:53:48;;;;;;;;;;;;;;;;;;5096231;28;19916;-63
2020/12/26 14:56:16;;;;;;;;;;;;;;;;;;5118851;28;19923;-61
2020/12/26 14:58:41;;;;;;;;;;;1.40;99.90;;;;;;5095262;28;20366;-62
2020/12/26 15:01:08;;;;;;;;;;;;;;;;;;5097567;28;19988;-63
2020/12/26 15:03:35;;;;;;;;;;;;;;;;;;5086641;28;19916;-58
2020/12/26 15:06:02;;;;;;;;;;;;;;;;;;5091083;28;19923;-58
2020/12/26 15:08:29;;;;;;;;;;;;;;;;;;5090053;28;19926;-58